Terminal Aerodrome Forecast
Issued by NWS

Home | Current Version | Previous Version | Text Only | Print | Product List | Glossary On
Versions: 1 2 3 4 5 6 7 8 9 10 11 12 13 14 15 16 17
000
FTUS45 KPIH 230000 AAA
TAFSUN
TAF AMD
KSUN 230001Z 2300/2324 VRB05KT P6SM -SHRA VCTS BKN020 OVC060CB
     FM230100 VRB05KT P6SM -SHRA VCTS BKN060CB
     FM230200 VRB05KT P6SM -SHRA BKN050
     FM230500 32008KT P6SM FEW015 SCT060
     FM231200 31008KT P6SM VCSH BKN050 OVC090
     FM231800 15008KT P6SM VCTS SCT040CB BKN120
      AMD LTD TO CLD VIS AND WIND 2305/2313=

USA.gov is the U.S. government's official web portal to all federal, state and local government web resources and services.